Flavio Basile

Recruteur - Lazio
20 Févr 2028
Dimanche
Processus

Personnalité

Adaptabilité (9) Ambition (1) Controverse (5) Loyauté (16) Pression (20) Professionnalisme (13) Sportivité (16) Tempérament (15)

Profil

Style d'entraînement Démocratique
Diplôme Continental C
Détermination 8
Gestion des joueurs 14
Motivation 6
Discipline 6
Satisfaction professionnelle
100%
Fatigue
0%
Rôle Recruteur
Salaire 94.9K p/s
Contrat 14.03.2030

Performance

Comportement Bon
Efficacité de l'entraînement
46%
Développement des joueurs
40%
Prévention des blessures
55%
Mise en place tactique
55%

Événements récents

A participé à une réunion de recrutement maintenant
A participé à une réunion de recrutement maintenant
A participé à une réunion de recrutement maintenant
A participé à une réunion de recrutement 7j
A participé à une réunion de recrutement 7j
A participé à une réunion de recrutement 7j
A participé à une réunion de recrutement 7j
A recommandé une cible de transfert 7j

Suivi en cours

85
Joueur Club Statut Capacité Confiance Observé Dernière observation Dernier vote
Gonzalo Gelini Boca Juniors Perdu 113 / 129 40% 1 31.01.2028 -
Tommy Watson Brighton Actif 135 / 141 40% 1 31.01.2028 -
Oumar Camara Braga Actif 121 / 139 40% 1 25.01.2028 -
Axel Kayombo Sturm Graz Actif 111 / 122 40% 1 25.01.2028 -
Jean-Daniel Akpa Akpro Hellas Verona Perdu 118 / 130 62% 1 17.01.2028 Approuver
Eduardo Felicíssimo Sporting CP Actif 115 / 122 40% 6 07.01.2028 -
Avery Appiah Ajax Actif 113 / 116 40% 1 07.01.2028 -
Nathan De Cat Hamburger SV Négociation 135 / 144 40% 1 31.12.2027 -
Veljko Milosavljević Aston Villa Actif 145 / 144 40% 1 11.08.2027 -
Lior Kasa Hapoel Kiryat Shmona Actif 126 / 106 40% 1 11.08.2027 -
Eliás Montiel Werder Bremen Actif 136 / 133 40% 1 10.08.2027 -
Gabriel Moscardo Paris Saint-Germain Actif 128 / 129 40% 1 10.08.2027 -
Davide Bartesaghi AC Milan Actif 140 / 143 40% 6 09.08.2027 -
Nazareno Roselli Defensa y Justicia Actif 116 / 120 40% 1 09.08.2027 -
Tobias Slotsager Casertana Actif 114 / 128 40% 5 08.08.2027 -
Dayann Methalie Aston Villa Actif 140 / 144 40% 3 08.08.2027 -
Josh King Chelsea Actif 151 / 149 40% 6 07.08.2027 -
Jarvis Thornton Sheffield Wednesday Actif 108 / 112 40% 1 07.08.2027 -
Alejandro Almaraz Nueva Chicago Actif 112 / 110 40% 2 06.08.2027 -
Miguel Figueiredo Cesena Actif 110 / 119 40% 2 05.08.2027 -
Darryl Bakola Padova Actif 118 / 114 40% 2 03.08.2027 -
Jofre Torrents Ajax Actif 121 / 132 40% 1 03.08.2027 -
Leonardo Mendicino Bari Actif 105 / 132 40% 5 01.08.2027 -
Gonçalo Oliveira Benfica Actif 114 / 122 40% 2 31.07.2027 -
Latrell Aken Groningen Actif 111 / 112 40% 2 30.07.2027 -
Josh Stephenson Brentford Actif 104 / 121 40% 2 30.07.2027 -
Ichem Ferrah Monza Actif 118 / 111 40% 1 22.07.2027 -
Christ Inao Oulaï Fiorentina Actif 141 / 152 40% 4 20.07.2027 -
Samuel Lucero Defensa y Justicia Actif 123 / 122 40% 2 20.07.2027 -
Dmitry Pestryakov Dinamo Moscow Actif 122 / 128 40% 4 12.07.2027 -
Sascha Britschgi Padova Actif 115 / 136 40% 3 05.07.2027 -
Pietro Iemmello Catanzaro Actif 137 / 137 58% 1 21.06.2027 -
Jesús Rodríguez Como Perdu 132 / 153 58% 1 04.06.2027 Approuver
Marvin Keller Bayer Leverkusen Négociation 136 / 137 67% 1 01.06.2027 Approuver
Tiago Freitas Benfica Actif 111 / 113 40% 4 29.05.2027 -
Samuele di Benedetto Bari Actif 116 / 120 40% 2 29.05.2027 -
Matvey Kislyak CSKA Moscow Actif 124 / 140 40% 2 28.05.2027 -
Valentin Atangana Al-Ahli Actif 124 / 121 40% 7 24.05.2027 -
Juan Rodríguez Cagliari Actif 128 / 127 40% 3 17.05.2027 -
Ezra Mayers West Ham United Actif 117 / 119 40% 2 16.05.2027 -
Juan Giménez Celta Actif 111 / 124 40% 2 07.05.2027 -
Matías Gómez Granada Actif 108 / 116 40% 2 28.04.2027 -
Freddy Murillo Valencia Actif 101 / 126 40% 1 21.04.2027 -
Daniel Kelly Oxford United Actif 119 / 111 40% 2 17.04.2027 -
Nevot Ratner Maccabi Haifa Actif 121 / 118 40% 1 14.04.2027 -
Dean Huijsen Villarreal Actif 152 / 156 40% 2 01.04.2027 -
Abdoulaye Kanté Al-Ettifaq Actif 118 / 124 40% 1 19.03.2027 -
Edon Zhegrova Juventus Actif 141 / 146 40% 2 30.12.2026 Plus d'infos
Williams Manyama SuperSport United Actif 104 / 125 40% 1 28.12.2026 -
Luís Henrique Inter Actif 154 / 149 40% 1 27.12.2026 -
Zakaria Aboukhlal Torino Actif 146 / 130 40% 3 26.12.2026 -
Romano Schmid Frosinone Actif 140 / 141 40% 3 20.12.2026 -
Alexis Saelemaekers AC Milan Actif 154 / 150 40% 2 19.12.2026 -
Raoul Bellanova Atalanta Actif 146 / 146 40% 1 19.12.2026 -
Giacomo Raspadori Atalanta Actif 160 / 155 40% 3 17.12.2026 -
Yan Diomandé Real Madrid Actif 139 / 159 40% 1 16.12.2026 -
Tshepang Moremi Orlando Pirates Actif 128 / 115 40% 1 12.12.2026 -
Francisco Conceição Juventus Actif 154 / 166 40% 1 11.12.2026 Plus d'infos
Marquinhos Spartak Moscow Actif 146 / 130 40% 1 08.12.2026 -
Marcelo Allende Mamelodi Sundowns Actif 128 / 133 40% 1 08.12.2026 -
Lewis Ferguson Bologna Actif 137 / 151 40% 2 23.11.2026 -
Mandla Erasmus SuperSport United Actif 118 / 124 40% 1 23.11.2026 -
Pierre Kalulu Juventus Actif 160 / 147 40% 1 20.11.2026 Plus d'infos
Unai Gómez Udinese Actif 139 / 127 40% 1 20.11.2026 -
Þórir Jóhann Helgason IF Elfsborg Actif 115 / 106 40% 1 17.11.2026 -
Silvio Gentile Zob Ahan Actif 111 / 124 40% 2 13.11.2026 -
Mattéo Tramoni Pisa Actif 136 / 121 40% 1 13.11.2026 -
Carlos Augusto Inter Actif 159 / 151 40% 1 10.11.2026 -
Christian Krasnodar Actif 145 / 122 40% 1 09.11.2026 -
Petar Stanić Ludogorets Actif 130 / 119 40% 1 06.11.2026 -
Hugo Ekitiké Liverpool Actif 161 / 158 40% 3 26.09.2026 -
Kai Havertz Arsenal Actif 157 / 162 40% 1 23.09.2026 -
Gonzalo Fulham Actif 147 / 147 40% 1 22.09.2026 -
Bradley Barcola Liverpool Actif 169 / 153 40% 1 22.09.2026 -
Thiago Brentford Actif 136 / 148 40% 2 21.09.2026 -
Cody Gakpo Liverpool Actif 144 / 151 40% 1 21.09.2026 -
Matheus Cunha Manchester United Actif 165 / 156 40% 3 19.09.2026 -
Jarrod Bowen West Ham United Actif 157 / 143 40% 1 19.09.2026 -
Viktor Gyökeres Arsenal Actif 157 / 152 40% 1 17.09.2026 -
Antoine Semenyo Manchester City Actif 164 / 151 40% 1 16.09.2026 -
Ángel Correa River Plate Actif 153 / 148 40% 1 14.09.2026 -
Roman Celentano FC Cincinnati Actif 134 / 102 40% 1 14.09.2026 -
Arijanet Murić Sassuolo Actif 146 / 139 40% 1 14.09.2026 -
Esteban Glellel Quilmes Actif 127 / 110 40% 1 11.09.2026 -
Luis Ingolotti Atlético Tucumán Actif 122 / 111 40% 1 11.09.2026 -